sensor_id;sensor_type;location;lat;lon;timestamp;P1;durP1;ratioP1;P2;durP2;ratioP2
64063;SDS011;50314;50.618;10.642;2023-02-21T00:02:06;2.13;;;1.48;;
64063;SDS011;50314;50.618;10.642;2023-02-21T00:04:52;1.17;;;1.08;;
64063;SDS011;50314;50.618;10.642;2023-02-21T00:07:36;1.75;;;1.48;;
64063;SDS011;50314;50.618;10.642;2023-02-21T00:10:20;1.48;;;1.20;;
64063;SDS011;50314;50.618;10.642;2023-02-21T00:13:04;1.17;;;1.00;;
64063;SDS011;50314;50.618;10.642;2023-02-21T00:15:48;2.13;;;1.10;;
64063;SDS011;50314;50.618;10.642;2023-02-21T00:18:33;1.92;;;1.55;;
64063;SDS011;50314;50.618;10.642;2023-02-21T00:21:17;1.33;;;1.23;;
64063;SDS011;50314;50.618;10.642;2023-02-21T00:24:01;1.20;;;1.10;;
64063;SDS011;50314;50.618;10.642;2023-02-21T00:26:45;1.63;;;1.25;;
64063;SDS011;50314;50.618;10.642;2023-02-21T00:29:29;1.63;;;1.33;;
64063;SDS011;50314;50.618;10.642;2023-02-21T00:32:13;1.35;;;1.25;;
64063;SDS011;50314;50.618;10.642;2023-02-21T00:34:57;1.20;;;1.10;;
64063;SDS011;50314;50.618;10.642;2023-02-21T00:37:41;1.52;;;1.30;;
64063;SDS011;50314;50.618;10.642;2023-02-21T00:40:25;1.75;;;1.25;;
64063;SDS011;50314;50.618;10.642;2023-02-21T00:43:09;1.70;;;1.45;;
64063;SDS011;50314;50.618;10.642;2023-02-21T00:45:53;1.98;;;1.30;;
64063;SDS011;50314;50.618;10.642;2023-02-21T00:48:38;1.85;;;1.48;;
64063;SDS011;50314;50.618;10.642;2023-02-21T00:51:22;2.30;;;1.35;;
64063;SDS011;50314;50.618;10.642;2023-02-21T00:54:06;1.63;;;1.10;;
64063;SDS011;50314;50.618;10.642;2023-02-21T00:56:50;1.45;;;1.25;;
64063;SDS011;50314;50.618;10.642;2023-02-21T00:59:34;1.50;;;1.20;;
64063;SDS011;50314;50.618;10.642;2023-02-21T01:02:18;1.30;;;1.10;;
64063;SDS011;50314;50.618;10.642;2023-02-21T01:05:02;1.20;;;1.10;;
64063;SDS011;50314;50.618;10.642;2023-02-21T01:07:47;1.88;;;1.25;;
64063;SDS011;50314;50.618;10.642;2023-02-21T01:10:30;1.90;;;1.35;;
64063;SDS011;50314;50.618;10.642;2023-02-21T01:13:15;1.95;;;1.42;;
64063;SDS011;50314;50.618;10.642;2023-02-21T01:15:59;1.98;;;1.30;;
64063;SDS011;50314;50.618;10.642;2023-02-21T01:18:42;1.33;;;1.23;;
64063;SDS011;50314;50.618;10.642;2023-02-21T01:21:26;1.42;;;1.30;;
64063;SDS011;50314;50.618;10.642;2023-02-21T01:24:13;1.33;;;1.15;;
64063;SDS011;50314;50.618;10.642;2023-02-21T01:26:58;1.23;;;1.10;;
64063;SDS011;50314;50.618;10.642;2023-02-21T01:29:43;1.70;;;1.30;;
64063;SDS011;50314;50.618;10.642;2023-02-21T01:32:27;1.55;;;1.13;;
64063;SDS011;50314;50.618;10.642;2023-02-21T01:35:11;1.30;;;1.20;;
64063;SDS011;50314;50.618;10.642;2023-02-21T01:37:55;1.15;;;1.02;;
64063;SDS011;50314;50.618;10.642;2023-02-21T01:40:40;1.75;;;1.38;;
64063;SDS011;50314;50.618;10.642;2023-02-21T01:43:25;1.10;;;1.00;;
64063;SDS011;50314;50.618;10.642;2023-02-21T01:46:14;1.33;;;1.17;;
64063;SDS011;50314;50.618;10.642;2023-02-21T01:49:05;1.15;;;1.10;;
64063;SDS011;50314;50.618;10.642;2023-02-21T01:51:54;1.23;;;1.13;;
64063;SDS011;50314;50.618;10.642;2023-02-21T01:54:41;1.30;;;1.17;;
64063;SDS011;50314;50.618;10.642;2023-02-21T01:57:29;1.13;;;1.00;;
64063;SDS011;50314;50.618;10.642;2023-02-21T02:00:14;1.42;;;1.33;;
64063;SDS011;50314;50.618;10.642;2023-02-21T02:03:01;1.70;;;1.08;;
64063;SDS011;50314;50.618;10.642;2023-02-21T02:05:48;1.52;;;1.10;;
64063;SDS011;50314;50.618;10.642;2023-02-21T02:11:18;1.40;;;1.30;;
64063;SDS011;50314;50.618;10.642;2023-02-21T02:22:37;1.50;;;1.00;;
64063;SDS011;50314;50.618;10.642;2023-02-21T02:25:43;1.23;;;0.90;;
64063;SDS011;50314;50.618;10.642;2023-02-21T02:36:49;1.88;;;1.30;;
64063;SDS011;50314;50.618;10.642;2023-02-21T02:39:20;1.38;;;0.80;;
64063;SDS011;50314;50.618;10.642;2023-02-21T02:44:40;2.33;;;1.25;;
64063;SDS011;50314;50.618;10.642;2023-02-21T02:47:21;1.20;;;1.08;;
64063;SDS011;50314;50.618;10.642;2023-02-21T02:49:52;0.95;;;0.90;;
64063;SDS011;50314;50.618;10.642;2023-02-21T02:52:19;0.90;;;0.80;;
64063;SDS011;50314;50.618;10.642;2023-02-21T02:54:56;1.25;;;0.98;;
64063;SDS011;50314;50.618;10.642;2023-02-21T02:57:22;1.27;;;1.00;;
64063;SDS011;50314;50.618;10.642;2023-02-21T02:59:48;1.13;;;1.02;;
64063;SDS011;50314;50.618;10.642;2023-02-21T03:02:26;1.77;;;1.05;;
64063;SDS011;50314;50.618;10.642;2023-02-21T03:10:13;1.20;;;1.00;;
64063;SDS011;50314;50.618;10.642;2023-02-21T03:13:46;1.00;;;0.90;;
64063;SDS011;50314;50.618;10.642;2023-02-21T03:16:15;1.08;;;0.90;;
64063;SDS011;50314;50.618;10.642;2023-02-21T03:18:57;1.30;;;0.95;;
64063;SDS011;50314;50.618;10.642;2023-02-21T03:21:33;1.25;;;1.05;;
64063;SDS011;50314;50.618;10.642;2023-02-21T03:24:03;1.23;;;0.95;;
64063;SDS011;50314;50.618;10.642;2023-02-21T03:26:31;1.30;;;1.17;;
64063;SDS011;50314;50.618;10.642;2023-02-21T03:29:00;0.80;;;0.80;;
64063;SDS011;50314;50.618;10.642;2023-02-21T03:31:29;1.33;;;1.02;;
64063;SDS011;50314;50.618;10.642;2023-02-21T03:34:00;1.15;;;1.02;;
64063;SDS011;50314;50.618;10.642;2023-02-21T03:36:26;1.02;;;0.90;;
64063;SDS011;50314;50.618;10.642;2023-02-21T03:38:51;1.13;;;1.00;;
64063;SDS011;50314;50.618;10.642;2023-02-21T03:41:17;1.23;;;0.90;;
64063;SDS011;50314;50.618;10.642;2023-02-21T03:43:42;1.40;;;1.20;;
64063;SDS011;50314;50.618;10.642;2023-02-21T03:46:08;1.38;;;0.95;;
64063;SDS011;50314;50.618;10.642;2023-02-21T03:48:33;0.98;;;0.90;;
64063;SDS011;50314;50.618;10.642;2023-02-21T03:50:59;1.70;;;1.20;;
64063;SDS011;50314;50.618;10.642;2023-02-21T03:53:25;1.52;;;0.88;;
64063;SDS011;50314;50.618;10.642;2023-02-21T03:55:51;1.30;;;1.00;;
64063;SDS011;50314;50.618;10.642;2023-02-21T03:58:16;1.30;;;0.90;;
64063;SDS011;50314;50.618;10.642;2023-02-21T04:00:42;1.20;;;1.00;;
64063;SDS011;50314;50.618;10.642;2023-02-21T04:03:07;1.17;;;0.95;;
64063;SDS011;50314;50.618;10.642;2023-02-21T04:05:33;1.52;;;1.10;;
64063;SDS011;50314;50.618;10.642;2023-02-21T04:07:58;1.05;;;0.90;;
64063;SDS011;50314;50.618;10.642;2023-02-21T04:10:24;1.52;;;0.93;;
64063;SDS011;50314;50.618;10.642;2023-02-21T04:12:49;1.10;;;1.00;;
64063;SDS011;50314;50.618;10.642;2023-02-21T04:15:15;1.63;;;0.93;;
64063;SDS011;50314;50.618;10.642;2023-02-21T04:17:40;1.20;;;1.08;;
64063;SDS011;50314;50.618;10.642;2023-02-21T04:20:06;1.10;;;1.00;;
64063;SDS011;50314;50.618;10.642;2023-02-21T04:22:31;1.10;;;1.00;;
64063;SDS011;50314;50.618;10.642;2023-02-21T04:24:57;1.20;;;1.10;;
64063;SDS011;50314;50.618;10.642;2023-02-21T04:27:22;1.15;;;0.90;;
64063;SDS011;50314;50.618;10.642;2023-02-21T04:29:48;1.30;;;1.20;;
64063;SDS011;50314;50.618;10.642;2023-02-21T04:32:13;1.15;;;0.90;;
64063;SDS011;50314;50.618;10.642;2023-02-21T04:34:39;0.80;;;0.75;;
64063;SDS011;50314;50.618;10.642;2023-02-21T04:37:04;0.77;;;0.65;;
64063;SDS011;50314;50.618;10.642;2023-02-21T04:39:30;1.25;;;1.05;;
64063;SDS011;50314;50.618;10.642;2023-02-21T04:41:55;1.48;;;1.02;;
64063;SDS011;50314;50.618;10.642;2023-02-21T04:44:21;1.10;;;0.90;;
64063;SDS011;50314;50.618;10.642;2023-02-21T04:46:46;0.70;;;0.70;;
64063;SDS011;50314;50.618;10.642;2023-02-21T04:49:12;1.98;;;1.00;;
64063;SDS011;50314;50.618;10.642;2023-02-21T04:51:38;1.00;;;0.90;;
64063;SDS011;50314;50.618;10.642;2023-02-21T04:54:03;1.23;;;0.90;;
64063;SDS011;50314;50.618;10.642;2023-02-21T04:56:29;1.15;;;0.90;;
64063;SDS011;50314;50.618;10.642;2023-02-21T04:58:56;0.95;;;0.90;;
64063;SDS011;50314;50.618;10.642;2023-02-21T05:01:22;1.02;;;0.80;;
64063;SDS011;50314;50.618;10.642;2023-02-21T05:03:52;1.23;;;0.93;;
64063;SDS011;50314;50.618;10.642;2023-02-21T05:06:21;1.00;;;0.90;;
64063;SDS011;50314;50.618;10.642;2023-02-21T05:08:48;1.13;;;1.00;;
64063;SDS011;50314;50.618;10.642;2023-02-21T05:11:13;0.98;;;0.90;;
64063;SDS011;50314;50.618;10.642;2023-02-21T05:13:41;1.52;;;1.30;;
64063;SDS011;50314;50.618;10.642;2023-02-21T05:16:07;1.20;;;1.00;;
64063;SDS011;50314;50.618;10.642;2023-02-21T05:18:32;1.00;;;0.90;;
64063;SDS011;50314;50.618;10.642;2023-02-21T05:20:58;1.20;;;0.82;;
64063;SDS011;50314;50.618;10.642;2023-02-21T05:23:25;1.65;;;1.20;;
64063;SDS011;50314;50.618;10.642;2023-02-21T05:26:07;1.15;;;0.88;;
64063;SDS011;50314;50.618;10.642;2023-02-21T05:28:34;1.23;;;1.00;;
64063;SDS011;50314;50.618;10.642;2023-02-21T05:31:01;1.10;;;0.90;;
64063;SDS011;50314;50.618;10.642;2023-02-21T05:33:26;0.80;;;0.77;;
64063;SDS011;50314;50.618;10.642;2023-02-21T05:35:52;0.95;;;0.95;;
64063;SDS011;50314;50.618;10.642;2023-02-21T05:38:19;1.17;;;1.08;;
64063;SDS011;50314;50.618;10.642;2023-02-21T05:40:45;1.75;;;1.00;;
64063;SDS011;50314;50.618;10.642;2023-02-21T05:43:11;1.10;;;0.80;;
64063;SDS011;50314;50.618;10.642;2023-02-21T05:45:36;1.25;;;0.88;;
64063;SDS011;50314;50.618;10.642;2023-02-21T05:48:02;1.15;;;0.80;;
64063;SDS011;50314;50.618;10.642;2023-02-21T05:50:28;1.25;;;0.80;;
64063;SDS011;50314;50.618;10.642;2023-02-21T05:52:54;1.40;;;1.00;;
64063;SDS011;50314;50.618;10.642;2023-02-21T05:55:20;1.00;;;0.80;;
64063;SDS011;50314;50.618;10.642;2023-02-21T05:57:46;1.02;;;0.80;;
64063;SDS011;50314;50.618;10.642;2023-02-21T06:00:15;1.60;;;1.13;;
64063;SDS011;50314;50.618;10.642;2023-02-21T06:02:48;0.90;;;0.80;;
64063;SDS011;50314;50.618;10.642;2023-02-21T06:05:15;1.15;;;0.85;;
64063;SDS011;50314;50.618;10.642;2023-02-21T06:07:40;1.25;;;1.00;;
64063;SDS011;50314;50.618;10.642;2023-02-21T06:10:06;1.10;;;0.90;;
64063;SDS011;50314;50.618;10.642;2023-02-21T06:12:32;1.40;;;1.02;;
64063;SDS011;50314;50.618;10.642;2023-02-21T06:14:57;1.10;;;0.90;;
64063;SDS011;50314;50.618;10.642;2023-02-21T06:17:23;1.10;;;1.00;;
64063;SDS011;50314;50.618;10.642;2023-02-21T06:19:48;0.80;;;0.80;;
64063;SDS011;50314;50.618;10.642;2023-02-21T06:22:14;1.30;;;1.20;;
64063;SDS011;50314;50.618;10.642;2023-02-21T06:24:39;1.33;;;1.08;;
64063;SDS011;50314;50.618;10.642;2023-02-21T06:27:05;1.42;;;0.93;;
64063;SDS011;50314;50.618;10.642;2023-02-21T06:29:30;1.17;;;0.93;;
64063;SDS011;50314;50.618;10.642;2023-02-21T06:31:56;1.05;;;0.90;;
64063;SDS011;50314;50.618;10.642;2023-02-21T06:34:23;1.35;;;1.08;;
64063;SDS011;50314;50.618;10.642;2023-02-21T06:36:54;1.77;;;1.00;;
64063;SDS011;50314;50.618;10.642;2023-02-21T06:39:21;1.10;;;1.00;;
64063;SDS011;50314;50.618;10.642;2023-02-21T06:41:48;1.40;;;1.17;;
64063;SDS011;50314;50.618;10.642;2023-02-21T06:44:13;1.73;;;1.13;;
64063;SDS011;50314;50.618;10.642;2023-02-21T06:46:39;1.00;;;0.90;;
64063;SDS011;50314;50.618;10.642;2023-02-21T06:49:04;1.23;;;1.00;;
64063;SDS011;50314;50.618;10.642;2023-02-21T06:51:37;1.10;;;0.98;;
64063;SDS011;50314;50.618;10.642;2023-02-21T06:54:04;1.40;;;1.00;;
64063;SDS011;50314;50.618;10.642;2023-02-21T06:56:31;1.73;;;1.17;;
64063;SDS011;50314;50.618;10.642;2023-02-21T06:58:57;1.40;;;1.10;;
64063;SDS011;50314;50.618;10.642;2023-02-21T07:01:24;2.22;;;1.40;;
64063;SDS011;50314;50.618;10.642;2023-02-21T07:03:55;3.72;;;2.13;;
64063;SDS011;50314;50.618;10.642;2023-02-21T07:08:47;2.80;;;1.83;;
64063;SDS011;50314;50.618;10.642;2023-02-21T07:11:13;3.97;;;2.10;;
64063;SDS011;50314;50.618;10.642;2023-02-21T07:13:39;2.83;;;1.95;;
64063;SDS011;50314;50.618;10.642;2023-02-21T07:16:05;2.63;;;1.88;;
64063;SDS011;50314;50.618;10.642;2023-02-21T07:18:31;4.75;;;2.20;;
64063;SDS011;50314;50.618;10.642;2023-02-21T07:20:56;2.00;;;1.50;;
64063;SDS011;50314;50.618;10.642;2023-02-21T07:23:22;2.72;;;2.10;;
64063;SDS011;50314;50.618;10.642;2023-02-21T07:25:47;2.75;;;1.73;;
64063;SDS011;50314;50.618;10.642;2023-02-21T07:28:13;2.55;;;1.73;;
64063;SDS011;50314;50.618;10.642;2023-02-21T07:30:38;2.60;;;1.67;;
64063;SDS011;50314;50.618;10.642;2023-02-21T07:33:04;2.17;;;1.70;;
64063;SDS011;50314;50.618;10.642;2023-02-21T07:35:30;2.10;;;1.70;;
64063;SDS011;50314;50.618;10.642;2023-02-21T07:37:55;2.58;;;1.63;;
64063;SDS011;50314;50.618;10.642;2023-02-21T07:40:21;3.10;;;1.75;;
64063;SDS011;50314;50.618;10.642;2023-02-21T07:42:46;1.75;;;1.45;;
64063;SDS011;50314;50.618;10.642;2023-02-21T07:45:12;2.00;;;1.42;;
64063;SDS011;50314;50.618;10.642;2023-02-21T07:47:40;2.03;;;1.20;;
64063;SDS011;50314;50.618;10.642;2023-02-21T07:50:07;2.33;;;1.67;;
64063;SDS011;50314;50.618;10.642;2023-02-21T07:52:34;2.40;;;1.40;;
64063;SDS011;50314;50.618;10.642;2023-02-21T07:54:59;2.10;;;1.17;;
64063;SDS011;50314;50.618;10.642;2023-02-21T07:57:25;2.45;;;1.60;;
64063;SDS011;50314;50.618;10.642;2023-02-21T07:59:50;1.98;;;1.40;;
64063;SDS011;50314;50.618;10.642;2023-02-21T08:02:16;1.88;;;1.38;;
64063;SDS011;50314;50.618;10.642;2023-02-21T08:04:41;1.75;;;1.58;;
64063;SDS011;50314;50.618;10.642;2023-02-21T08:07:07;2.00;;;1.30;;
64063;SDS011;50314;50.618;10.642;2023-02-21T08:09:33;2.92;;;1.92;;
64063;SDS011;50314;50.618;10.642;2023-02-21T08:11:59;2.85;;;2.05;;
64063;SDS011;50314;50.618;10.642;2023-02-21T08:14:25;2.65;;;1.95;;
64063;SDS011;50314;50.618;10.642;2023-02-21T08:16:50;2.75;;;1.80;;
64063;SDS011;50314;50.618;10.642;2023-02-21T08:19:16;2.33;;;1.67;;
64063;SDS011;50314;50.618;10.642;2023-02-21T08:21:45;2.55;;;1.60;;
64063;SDS011;50314;50.618;10.642;2023-02-21T08:24:11;3.28;;;2.17;;
64063;SDS011;50314;50.618;10.642;2023-02-21T08:26:37;2.28;;;1.85;;
64063;SDS011;50314;50.618;10.642;2023-02-21T08:29:04;2.00;;;1.60;;
64063;SDS011;50314;50.618;10.642;2023-02-21T08:31:30;2.58;;;1.98;;
64063;SDS011;50314;50.618;10.642;2023-02-21T08:33:59;2.38;;;1.50;;
64063;SDS011;50314;50.618;10.642;2023-02-21T08:36:29;1.65;;;1.55;;
64063;SDS011;50314;50.618;10.642;2023-02-21T08:39:05;2.78;;;1.70;;
64063;SDS011;50314;50.618;10.642;2023-02-21T08:44:01;1.83;;;1.40;;
64063;SDS011;50314;50.618;10.642;2023-02-21T08:46:26;2.40;;;1.58;;
64063;SDS011;50314;50.618;10.642;2023-02-21T08:48:52;3.90;;;2.20;;
64063;SDS011;50314;50.618;10.642;2023-02-21T08:51:22;3.40;;;2.00;;
64063;SDS011;50314;50.618;10.642;2023-02-21T08:53:49;2.58;;;2.20;;
64063;SDS011;50314;50.618;10.642;2023-02-21T08:56:17;3.88;;;2.25;;
64063;SDS011;50314;50.618;10.642;2023-02-21T08:58:44;2.60;;;2.10;;
64063;SDS011;50314;50.618;10.642;2023-02-21T09:01:10;2.35;;;1.77;;
64063;SDS011;50314;50.618;10.642;2023-02-21T09:03:35;2.45;;;1.80;;
64063;SDS011;50314;50.618;10.642;2023-02-21T09:06:00;3.13;;;1.95;;
64063;SDS011;50314;50.618;10.642;2023-02-21T09:08:27;2.97;;;1.83;;
64063;SDS011;50314;50.618;10.642;2023-02-21T09:13:24;1.98;;;1.40;;
64063;SDS011;50314;50.618;10.642;2023-02-21T09:15:53;2.30;;;1.38;;
64063;SDS011;50314;50.618;10.642;2023-02-21T09:18:19;2.08;;;1.65;;
64063;SDS011;50314;50.618;10.642;2023-02-21T09:20:45;2.75;;;2.10;;
64063;SDS011;50314;50.618;10.642;2023-02-21T09:23:17;2.90;;;2.20;;
64063;SDS011;50314;50.618;10.642;2023-02-21T09:25:44;2.65;;;1.50;;
64063;SDS011;50314;50.618;10.642;2023-02-21T09:28:10;1.95;;;1.52;;
64063;SDS011;50314;50.618;10.642;2023-02-21T09:30:36;2.63;;;2.15;;
64063;SDS011;50314;50.618;10.642;2023-02-21T09:33:01;2.42;;;1.60;;
64063;SDS011;50314;50.618;10.642;2023-02-21T09:35:27;1.95;;;1.50;;
64063;SDS011;50314;50.618;10.642;2023-02-21T09:37:55;2.90;;;1.55;;
64063;SDS011;50314;50.618;10.642;2023-02-21T09:42:57;1.70;;;1.48;;
64063;SDS011;50314;50.618;10.642;2023-02-21T09:45:25;2.33;;;1.85;;
64063;SDS011;50314;50.618;10.642;2023-02-21T09:47:54;2.17;;;1.60;;
64063;SDS011;50314;50.618;10.642;2023-02-21T09:50:26;2.20;;;1.58;;
64063;SDS011;50314;50.618;10.642;2023-02-21T09:52:58;2.33;;;1.40;;
64063;SDS011;50314;50.618;10.642;2023-02-21T09:55:32;1.92;;;1.50;;
64063;SDS011;50314;50.618;10.642;2023-02-21T09:58:00;1.63;;;1.20;;
64063;SDS011;50314;50.618;10.642;2023-02-21T10:00:35;2.15;;;1.38;;
64063;SDS011;50314;50.618;10.642;2023-02-21T10:03:07;2.60;;;1.80;;
64063;SDS011;50314;50.618;10.642;2023-02-21T10:16:39;2.72;;;1.80;;
64063;SDS011;50314;50.618;10.642;2023-02-21T10:19:13;2.92;;;1.73;;
64063;SDS011;50314;50.618;10.642;2023-02-21T10:21:45;2.65;;;1.77;;
64063;SDS011;50314;50.618;10.642;2023-02-21T10:24:18;2.40;;;1.73;;
64063;SDS011;50314;50.618;10.642;2023-02-21T10:27:02;2.60;;;1.95;;
64063;SDS011;50314;50.618;10.642;2023-02-21T10:32:24;2.05;;;1.40;;
64063;SDS011;50314;50.618;10.642;2023-02-21T10:34:50;3.35;;;1.77;;
64063;SDS011;50314;50.618;10.642;2023-02-21T10:40:26;2.70;;;1.90;;
64063;SDS011;50314;50.618;10.642;2023-02-21T10:45:32;2.13;;;1.55;;
64063;SDS011;50314;50.618;10.642;2023-02-21T10:48:04;2.10;;;1.73;;
64063;SDS011;50314;50.618;10.642;2023-02-21T10:50:50;2.13;;;1.67;;
64063;SDS011;50314;50.618;10.642;2023-02-21T10:58:47;2.70;;;1.80;;
64063;SDS011;50314;50.618;10.642;2023-02-21T11:03:44;2.05;;;1.50;;
64063;SDS011;50314;50.618;10.642;2023-02-21T11:06:33;2.55;;;1.75;;
64063;SDS011;50314;50.618;10.642;2023-02-21T11:09:28;3.00;;;2.35;;
64063;SDS011;50314;50.618;10.642;2023-02-21T11:17:30;2.92;;;1.83;;
64063;SDS011;50314;50.618;10.642;2023-02-21T11:28:24;2.90;;;1.70;;
64063;SDS011;50314;50.618;10.642;2023-02-21T11:33:57;4.70;;;2.80;;
64063;SDS011;50314;50.618;10.642;2023-02-21T11:36:35;4.80;;;2.85;;
64063;SDS011;50314;50.618;10.642;2023-02-21T11:41:52;3.33;;;2.00;;
64063;SDS011;50314;50.618;10.642;2023-02-21T11:44:38;3.10;;;2.20;;
64063;SDS011;50314;50.618;10.642;2023-02-21T11:50:09;2.58;;;1.60;;
64063;SDS011;50314;50.618;10.642;2023-02-21T11:52:37;3.40;;;1.85;;
64063;SDS011;50314;50.618;10.642;2023-02-21T11:55:25;2.22;;;1.77;;
64063;SDS011;50314;50.618;10.642;2023-02-21T11:57:56;2.33;;;1.75;;
64063;SDS011;50314;50.618;10.642;2023-02-21T12:00:48;2.63;;;1.73;;
64063;SDS011;50314;50.618;10.642;2023-02-21T12:09:18;2.00;;;1.40;;
64063;SDS011;50314;50.618;10.642;2023-02-21T12:20:01;2.92;;;1.83;;
64063;SDS011;50314;50.618;10.642;2023-02-21T12:25:31;1.90;;;1.30;;
64063;SDS011;50314;50.618;10.642;2023-02-21T12:34:42;2.20;;;1.58;;
64063;SDS011;50314;50.618;10.642;2023-02-21T12:36:57;2.42;;;1.35;;
64063;SDS011;50314;50.618;10.642;2023-02-21T12:42:32;1.58;;;1.38;;
64063;SDS011;50314;50.618;10.642;2023-02-21T12:50:30;2.30;;;1.63;;
64063;SDS011;50314;50.618;10.642;2023-02-21T12:53:11;2.08;;;1.48;;
64063;SDS011;50314;50.618;10.642;2023-02-21T12:55:47;2.00;;;1.35;;
64063;SDS011;50314;50.618;10.642;2023-02-21T12:58:42;2.40;;;1.45;;
64063;SDS011;50314;50.618;10.642;2023-02-21T13:01:18;2.65;;;1.60;;
64063;SDS011;50314;50.618;10.642;2023-02-21T13:06:29;1.98;;;1.60;;
64063;SDS011;50314;50.618;10.642;2023-02-21T13:09:08;2.92;;;1.73;;
64063;SDS011;50314;50.618;10.642;2023-02-21T13:11:44;3.15;;;2.00;;
64063;SDS011;50314;50.618;10.642;2023-02-21T13:14:26;2.25;;;1.58;;
64063;SDS011;50314;50.618;10.642;2023-02-21T13:16:58;1.98;;;1.60;;
64063;SDS011;50314;50.618;10.642;2023-02-21T13:19:23;2.40;;;1.52;;
64063;SDS011;50314;50.618;10.642;2023-02-21T13:22:01;2.47;;;1.58;;
64063;SDS011;50314;50.618;10.642;2023-02-21T13:30:37;2.67;;;1.67;;
64063;SDS011;50314;50.618;10.642;2023-02-21T13:33:05;2.28;;;1.50;;
64063;SDS011;50314;50.618;10.642;2023-02-21T13:35:45;2.30;;;1.52;;
64063;SDS011;50314;50.618;10.642;2023-02-21T13:38:15;1.67;;;1.40;;
64063;SDS011;50314;50.618;10.642;2023-02-21T13:43:26;3.13;;;1.50;;
64063;SDS011;50314;50.618;10.642;2023-02-21T13:45:59;1.83;;;1.40;;
64063;SDS011;50314;50.618;10.642;2023-02-21T13:57:43;1.80;;;1.40;;
64063;SDS011;50314;50.618;10.642;2023-02-21T14:10:59;1.63;;;1.17;;
64063;SDS011;50314;50.618;10.642;2023-02-21T14:13:42;2.45;;;1.35;;
64063;SDS011;50314;50.618;10.642;2023-02-21T14:21:09;2.15;;;1.73;;
64063;SDS011;50314;50.618;10.642;2023-02-21T14:23:41;1.88;;;1.33;;
64063;SDS011;50314;50.618;10.642;2023-02-21T14:26:37;1.55;;;1.25;;
64063;SDS011;50314;50.618;10.642;2023-02-21T14:40:02;2.78;;;1.65;;
64063;SDS011;50314;50.618;10.642;2023-02-21T14:45:40;1.55;;;1.20;;
64063;SDS011;50314;50.618;10.642;2023-02-21T15:02:24;1.17;;;1.08;;
64063;SDS011;50314;50.618;10.642;2023-02-21T15:07:50;1.88;;;1.38;;
64063;SDS011;50314;50.618;10.642;2023-02-21T15:10:30;1.63;;;1.20;;
64063;SDS011;50314;50.618;10.642;2023-02-21T15:20:30;2.63;;;1.27;;
64063;SDS011;50314;50.618;10.642;2023-02-21T15:25:38;2.05;;;1.50;;
64063;SDS011;50314;50.618;10.642;2023-02-21T15:28:06;1.25;;;1.15;;
64063;SDS011;50314;50.618;10.642;2023-02-21T15:30:53;1.70;;;1.30;;
64063;SDS011;50314;50.618;10.642;2023-02-21T15:33:28;2.15;;;1.60;;
64063;SDS011;50314;50.618;10.642;2023-02-21T15:36:02;1.27;;;1.00;;
64063;SDS011;50314;50.618;10.642;2023-02-21T15:38:32;1.85;;;1.42;;
64063;SDS011;50314;50.618;10.642;2023-02-21T15:41:11;1.27;;;1.17;;
64063;SDS011;50314;50.618;10.642;2023-02-21T15:43:45;1.73;;;1.20;;
64063;SDS011;50314;50.618;10.642;2023-02-21T15:46:21;1.73;;;1.10;;
64063;SDS011;50314;50.618;10.642;2023-02-21T15:48:50;2.03;;;1.38;;
64063;SDS011;50314;50.618;10.642;2023-02-21T15:51:18;1.83;;;1.40;;
64063;SDS011;50314;50.618;10.642;2023-02-21T15:54:05;1.33;;;1.23;;
64063;SDS011;50314;50.618;10.642;2023-02-21T15:56:47;1.80;;;1.25;;
64063;SDS011;50314;50.618;10.642;2023-02-21T15:59:32;1.75;;;1.20;;
64063;SDS011;50314;50.618;10.642;2023-02-21T16:04:37;1.23;;;1.10;;
64063;SDS011;50314;50.618;10.642;2023-02-21T16:07:04;1.50;;;1.40;;
64063;SDS011;50314;50.618;10.642;2023-02-21T16:09:33;2.22;;;1.23;;
64063;SDS011;50314;50.618;10.642;2023-02-21T16:14:41;1.67;;;1.35;;
64063;SDS011;50314;50.618;10.642;2023-02-21T16:19:55;1.95;;;1.60;;
64063;SDS011;50314;50.618;10.642;2023-02-21T16:22:28;1.63;;;1.25;;
64063;SDS011;50314;50.618;10.642;2023-02-21T16:25:07;1.20;;;1.10;;
64063;SDS011;50314;50.618;10.642;2023-02-21T16:27:45;1.40;;;1.30;;
64063;SDS011;50314;50.618;10.642;2023-02-21T16:30:17;2.55;;;1.50;;
64063;SDS011;50314;50.618;10.642;2023-02-21T16:32:46;1.35;;;1.25;;
64063;SDS011;50314;50.618;10.642;2023-02-21T16:35:14;1.40;;;1.27;;
64063;SDS011;50314;50.618;10.642;2023-02-21T16:37:48;1.35;;;1.13;;
64063;SDS011;50314;50.618;10.642;2023-02-21T16:40:18;1.40;;;1.30;;
64063;SDS011;50314;50.618;10.642;2023-02-21T16:42:47;1.30;;;1.17;;
64063;SDS011;50314;50.618;10.642;2023-02-21T16:45:14;1.40;;;1.30;;
64063;SDS011;50314;50.618;10.642;2023-02-21T16:47:39;1.65;;;1.20;;
64063;SDS011;50314;50.618;10.642;2023-02-21T16:50:22;1.42;;;1.33;;
64063;SDS011;50314;50.618;10.642;2023-02-21T16:52:48;1.42;;;1.30;;
64063;SDS011;50314;50.618;10.642;2023-02-21T16:55:14;2.28;;;1.30;;
64063;SDS011;50314;50.618;10.642;2023-02-21T16:57:42;1.70;;;1.27;;
64063;SDS011;50314;50.618;10.642;2023-02-21T17:00:11;1.70;;;1.27;;
64063;SDS011;50314;50.618;10.642;2023-02-21T17:02:36;1.50;;;1.30;;
64063;SDS011;50314;50.618;10.642;2023-02-21T17:05:02;1.52;;;1.00;;
64063;SDS011;50314;50.618;10.642;2023-02-21T17:07:27;1.40;;;1.17;;
64063;SDS011;50314;50.618;10.642;2023-02-21T17:09:53;1.40;;;1.17;;
64063;SDS011;50314;50.618;10.642;2023-02-21T17:12:18;2.65;;;1.30;;
64063;SDS011;50314;50.618;10.642;2023-02-21T17:14:43;2.15;;;1.20;;
64063;SDS011;50314;50.618;10.642;2023-02-21T17:17:09;1.35;;;0.95;;
64063;SDS011;50314;50.618;10.642;2023-02-21T17:19:34;1.33;;;1.23;;
64063;SDS011;50314;50.618;10.642;2023-02-21T17:22:00;1.40;;;1.30;;
64063;SDS011;50314;50.618;10.642;2023-02-21T17:24:25;1.75;;;1.35;;
64063;SDS011;50314;50.618;10.642;2023-02-21T17:26:51;1.30;;;1.20;;
64063;SDS011;50314;50.618;10.642;2023-02-21T17:29:17;1.38;;;1.27;;
64063;SDS011;50314;50.618;10.642;2023-02-21T17:31:44;1.13;;;1.02;;
64063;SDS011;50314;50.618;10.642;2023-02-21T17:34:10;1.48;;;1.27;;
64063;SDS011;50314;50.618;10.642;2023-02-21T17:36:37;1.83;;;1.20;;
64063;SDS011;50314;50.618;10.642;2023-02-21T17:39:03;1.40;;;1.30;;
64063;SDS011;50314;50.618;10.642;2023-02-21T17:41:28;1.35;;;1.25;;
64063;SDS011;50314;50.618;10.642;2023-02-21T17:43:54;1.75;;;1.48;;
64063;SDS011;50314;50.618;10.642;2023-02-21T17:46:20;1.98;;;1.40;;
64063;SDS011;50314;50.618;10.642;2023-02-21T17:48:45;1.83;;;1.42;;
64063;SDS011;50314;50.618;10.642;2023-02-21T17:51:23;1.50;;;1.30;;
64063;SDS011;50314;50.618;10.642;2023-02-21T17:53:50;3.15;;;1.38;;
64063;SDS011;50314;50.618;10.642;2023-02-21T17:56:20;1.75;;;1.40;;
64063;SDS011;50314;50.618;10.642;2023-02-21T17:58:48;1.55;;;1.45;;
64063;SDS011;50314;50.618;10.642;2023-02-21T18:01:15;1.52;;;1.25;;
64063;SDS011;50314;50.618;10.642;2023-02-21T18:03:43;1.52;;;1.42;;
64063;SDS011;50314;50.618;10.642;2023-02-21T18:06:09;1.52;;;1.42;;
64063;SDS011;50314;50.618;10.642;2023-02-21T18:08:34;1.75;;;1.55;;
64063;SDS011;50314;50.618;10.642;2023-02-21T18:11:00;1.27;;;1.10;;
64063;SDS011;50314;50.618;10.642;2023-02-21T18:13:25;1.88;;;1.50;;
64063;SDS011;50314;50.618;10.642;2023-02-21T18:15:51;1.38;;;1.25;;
64063;SDS011;50314;50.618;10.642;2023-02-21T18:18:16;1.80;;;1.38;;
64063;SDS011;50314;50.618;10.642;2023-02-21T18:20:42;1.42;;;1.33;;
64063;SDS011;50314;50.618;10.642;2023-02-21T18:23:08;1.63;;;1.50;;
64063;SDS011;50314;50.618;10.642;2023-02-21T18:25:33;1.50;;;1.40;;